createdAt,value
2023-01-26T00:02:04.299Z,101037.19
2023-01-26T00:58:13.696Z,100980.25
2023-01-26T01:00:42.285Z,100978.16
2023-01-26T01:03:11.942Z,100985.31
2023-01-26T01:05:40.265Z,100972.41
2023-01-26T01:08:08.205Z,100974.94
2023-01-26T01:10:36.479Z,100970.56
2023-01-26T01:13:04.422Z,100978.88
2023-01-26T01:15:33.758Z,100975.66
2023-01-26T01:18:01.706Z,100969.75
2023-01-26T01:20:31.352Z,100974.88
2023-01-26T01:22:59.282Z,100974.34
2023-01-26T01:25:29.927Z,100968.47
2023-01-26T01:27:58.029Z,100973.00
2023-01-26T01:30:26.380Z,100972.88
2023-01-26T01:32:54.390Z,100973.00
2023-01-26T01:35:23.910Z,100971.94
2023-01-26T01:37:52.121Z,100968.75
2023-01-26T01:40:20.438Z,100972.94
2023-01-26T01:42:49.643Z,100957.09
2023-01-26T01:45:27.005Z,100960.28
2023-01-26T01:47:59.922Z,100954.38
2023-01-26T01:50:31.566Z,100945.94
2023-01-26T01:52:59.688Z,100948.13
2023-01-26T01:55:28.092Z,100939.34
2023-01-26T01:58:00.395Z,100944.44
2023-01-26T02:00:29.034Z,100937.03
2023-01-26T02:03:16.840Z,100942.78
2023-01-26T02:06:19.454Z,100936.66
2023-01-26T02:08:51.387Z,100936.94
2023-01-26T02:11:25.775Z,100942.25
2023-01-26T02:13:54.812Z,100934.06
2023-01-26T02:16:24.382Z,100929.25
2023-01-26T02:18:54.353Z,100934.16
2023-01-26T02:21:24.676Z,100929.91
2023-01-26T02:24:17.865Z,100929.53
2023-01-26T02:26:47.029Z,100927.25
2023-01-26T02:29:15.178Z,100927.53
2023-01-26T02:31:46.545Z,100924.22
2023-01-26T02:34:14.900Z,100915.97
2023-01-26T02:36:43.347Z,100913.72
2023-01-26T02:39:33.107Z,100900.38
2023-01-26T02:42:19.913Z,100905.34
2023-01-26T02:44:47.967Z,100905.34
2023-01-26T02:47:18.628Z,100895.97
2023-01-26T02:49:48.116Z,100901.38
2023-01-26T02:52:25.724Z,100897.00
2023-01-26T02:55:18.473Z,100889.38
2023-01-26T02:57:47.277Z,100885.19
2023-01-26T03:00:18.390Z,100885.19
2023-01-26T03:02:48.448Z,100885.88
2023-01-26T03:05:17.043Z,100885.91
2023-01-26T03:07:45.909Z,100874.34
2023-01-26T03:10:14.308Z,100879.69
2023-01-26T03:12:42.655Z,100868.09
2023-01-26T03:15:29.746Z,100867.53
2023-01-26T03:18:24.491Z,100860.34
2023-01-26T03:21:11.556Z,100860.75
2023-01-26T03:23:58.413Z,100864.59
2023-01-26T03:26:46.944Z,100859.19
2023-01-26T03:29:16.417Z,100858.63
2023-01-26T03:31:45.019Z,100851.56
2023-01-26T03:34:13.395Z,100849.56
2023-01-26T03:36:42.260Z,100849.84
2023-01-26T03:39:35.230Z,100844.72
2023-01-26T03:42:23.981Z,100849.31
2023-01-26T03:45:10.614Z,100842.31
2023-01-26T03:48:01.197Z,100849.69
2023-01-26T03:50:50.578Z,100839.56
2023-01-26T03:53:41.391Z,100839.19
2023-01-26T03:56:18.588Z,100845.66
2023-01-26T03:58:57.786Z,100838.00
2023-01-26T04:01:29.458Z,100835.59
2023-01-26T04:04:18.027Z,100834.41
2023-01-26T04:07:08.375Z,100828.63
2023-01-26T04:09:41.835Z,100827.44
2023-01-26T04:12:12.212Z,100812.69
2023-01-26T04:15:08.487Z,100811.47
2023-01-26T04:17:55.289Z,100808.44
2023-01-26T04:20:41.514Z,100808.94
2023-01-26T04:23:20.827Z,100807.88
2023-01-26T04:25:51.075Z,100790.81
2023-01-26T04:28:19.702Z,100785.81
2023-01-26T04:30:49.741Z,100789.47
2023-01-26T04:33:18.006Z,100781.22
2023-01-26T04:35:45.905Z,100777.50
2023-01-26T04:38:14.208Z,100780.22
2023-01-26T04:40:43.393Z,100772.69
2023-01-26T04:43:12.089Z,100771.81
2023-01-26T04:45:40.124Z,100774.41
2023-01-26T04:48:09.185Z,100769.44
2023-01-26T04:50:37.148Z,100762.63
2023-01-26T04:53:06.272Z,100770.59
2023-01-26T04:55:34.137Z,100768.78
2023-01-26T04:58:03.874Z,100775.63
2023-01-26T05:00:32.610Z,100769.38
2023-01-26T05:03:02.636Z,100771.81
2023-01-26T05:05:30.773Z,100771.94
2023-01-26T05:07:58.996Z,100775.72
2023-01-26T05:10:29.737Z,100766.00
2023-01-26T05:13:16.731Z,100762.09
2023-01-26T05:16:06.201Z,100765.19
2023-01-26T05:18:47.892Z,100762.25
2023-01-26T05:21:36.124Z,100761.97
2023-01-26T05:24:04.801Z,100764.56
2023-01-26T05:27:15.786Z,100762.75
2023-01-26T05:29:45.235Z,100766.00
2023-01-26T05:32:13.526Z,100759.09
2023-01-26T05:34:42.664Z,100772.78
2023-01-26T05:37:13.641Z,100766.19
2023-01-26T05:39:45.449Z,100767.16
2023-01-26T05:42:14.042Z,100763.19
2023-01-26T05:45:09.018Z,100763.22
2023-01-26T05:47:39.411Z,100765.94
2023-01-26T05:50:08.858Z,100761.53
2023-01-26T05:52:37.205Z,100763.69
2023-01-26T05:55:07.769Z,100766.41
2023-01-26T05:57:36.676Z,100773.25
2023-01-26T06:00:10.494Z,100770.13
2023-01-26T06:02:55.437Z,100770.19
2023-01-26T06:05:23.866Z,100766.06
2023-01-26T06:07:53.135Z,100764.41
2023-01-26T06:10:28.070Z,100770.72
2023-01-26T06:13:14.646Z,100775.91
2023-01-26T06:15:49.416Z,100778.41
2023-01-26T06:18:17.536Z,100774.31
2023-01-26T06:20:51.767Z,100774.09
2023-01-26T06:23:19.764Z,100769.81
2023-01-26T06:25:49.106Z,100763.59
2023-01-26T06:28:17.025Z,100760.44
2023-01-26T06:30:46.145Z,100763.03
2023-01-26T06:33:15.739Z,100760.97
2023-01-26T06:35:44.155Z,100760.84
2023-01-26T06:38:15.737Z,100758.31
2023-01-26T06:40:46.548Z,100751.72
2023-01-26T06:43:15.697Z,100745.81
2023-01-26T06:45:44.097Z,100749.91
2023-01-26T06:48:12.218Z,100744.22
2023-01-26T06:50:40.649Z,100753.47
2023-01-26T06:53:34.247Z,100748.03
2023-01-26T06:56:25.348Z,100746.38
2023-01-26T06:59:12.055Z,100750.63
2023-01-26T07:02:00.589Z,100744.16
2023-01-26T07:04:28.553Z,100744.22
2023-01-26T07:06:58.189Z,100737.78
2023-01-26T07:09:26.117Z,100735.84
2023-01-26T07:11:55.290Z,100737.06
2023-01-26T07:14:23.229Z,100739.91
2023-01-26T07:16:51.525Z,100742.97
2023-01-26T07:19:20.080Z,100743.59
2023-01-26T07:21:49.427Z,100733.53
2023-01-26T07:24:17.334Z,100739.72
2023-01-26T07:26:45.616Z,100739.72
2023-01-26T07:29:13.680Z,100743.41
2023-01-26T07:31:44.794Z,100745.47
2023-01-26T07:34:13.120Z,100748.03
2023-01-26T07:36:41.498Z,100751.16
2023-01-26T07:39:09.517Z,100751.31
2023-01-26T07:41:37.829Z,100749.22
2023-01-26T07:44:24.996Z,100742.25
2023-01-26T07:46:54.843Z,100748.91
2023-01-26T07:49:22.849Z,100749.00
2023-01-26T07:51:53.548Z,100743.38
2023-01-26T07:54:21.840Z,100743.03
2023-01-26T07:56:54.809Z,100738.00
2023-01-26T07:59:23.351Z,100735.72
2023-01-26T08:01:52.412Z,100739.09
2023-01-26T08:04:20.550Z,100738.66
2023-01-26T08:06:52.086Z,100743.19
2023-01-26T08:09:20.142Z,100733.22
2023-01-26T08:11:48.499Z,100731.44
2023-01-26T08:14:16.530Z,100725.03
2023-01-26T08:16:46.705Z,100732.25
2023-01-26T08:19:14.829Z,100727.91
2023-01-26T08:21:43.141Z,100729.09
2023-01-26T08:24:14.147Z,100732.84
2023-01-26T08:26:43.672Z,100736.50
2023-01-26T08:29:11.661Z,100739.88
2023-01-26T08:31:39.931Z,100737.13
2023-01-26T08:34:07.907Z,100740.06
2023-01-26T08:36:36.193Z,100738.91
2023-01-26T08:39:04.597Z,100743.72
2023-01-26T08:41:34.439Z,100750.63
2023-01-26T08:44:02.633Z,100744.13
2023-01-26T08:46:31.018Z,100744.81
2023-01-26T08:49:00.531Z,100747.50
2023-01-26T08:51:29.280Z,100750.03
2023-01-26T08:53:57.266Z,100748.06
2023-01-26T08:56:25.660Z,100752.22
2023-01-26T12:59:46.682Z,100480.25
2023-01-26T13:02:17.226Z,100478.22
2023-01-26T13:04:48.900Z,100474.41
2023-01-26T13:07:38.900Z,100472.53
2023-01-26T13:10:19.725Z,100476.16
2023-01-26T13:12:49.731Z,100465.94
2023-01-26T13:15:20.377Z,100465.16
2023-01-26T13:18:00.322Z,100463.53
2023-01-26T13:20:40.646Z,100464.13
2023-01-26T13:23:39.326Z,100455.78
2023-01-26T13:26:17.789Z,100450.78
2023-01-26T13:28:48.182Z,100447.31
2023-01-26T13:31:34.584Z,100444.47
2023-01-26T13:34:09.110Z,100436.34
2023-01-26T13:36:40.287Z,100445.34
2023-01-26T13:39:28.919Z,100448.47
2023-01-26T13:41:57.653Z,100447.16
2023-01-26T13:44:48.926Z,100438.03
2023-01-26T13:47:24.779Z,100435.84
2023-01-26T13:49:53.211Z,100436.75
2023-01-26T13:52:24.578Z,100440.97
2023-01-26T13:54:58.244Z,100442.56
2023-01-26T13:57:28.761Z,100433.19
2023-01-26T14:00:00.688Z,100438.00
2023-01-26T14:02:31.649Z,100442.78
2023-01-26T14:05:02.337Z,100442.38
2023-01-26T14:07:44.841Z,100434.31
2023-01-26T14:10:22.655Z,100436.44
2023-01-26T14:12:56.031Z,100438.31
2023-01-26T14:15:29.325Z,100438.78
2023-01-26T14:18:03.070Z,100435.66
2023-01-26T14:20:35.968Z,100433.91
2023-01-26T14:23:19.071Z,100434.06
2023-01-26T14:26:21.264Z,100437.31
2023-01-26T14:28:49.260Z,100431.69
2023-01-26T14:31:24.414Z,100426.97
2023-01-26T14:33:57.566Z,100433.38
2023-01-26T14:36:29.624Z,100432.66
2023-01-26T14:38:57.598Z,100427.75
2023-01-26T14:41:30.394Z,100431.59
2023-01-26T14:44:02.265Z,100430.00
2023-01-26T14:46:58.231Z,100427.69
2023-01-26T14:50:00.275Z,100417.69
2023-01-26T14:52:34.272Z,100428.53
2023-01-26T14:55:12.938Z,100425.81
2023-01-26T14:57:42.395Z,100424.25
2023-01-26T15:00:26.171Z,100421.31
2023-01-26T15:02:56.040Z,100415.03
2023-01-26T15:05:36.034Z,100424.56
2023-01-26T15:08:24.915Z,100421.09
2023-01-26T15:11:19.608Z,100424.84
2023-01-26T15:13:53.756Z,100426.97
2023-01-26T15:16:23.212Z,100416.91
2023-01-26T15:19:03.382Z,100423.13
2023-01-26T15:21:44.494Z,100411.91
2023-01-26T15:24:15.450Z,100415.53
2023-01-26T15:26:44.180Z,100414.56
2023-01-26T15:29:26.226Z,100408.31
2023-01-26T15:31:56.639Z,100415.53
2023-01-26T15:34:31.915Z,100412.38
2023-01-26T15:37:01.447Z,100410.22
2023-01-26T15:39:30.760Z,100415.13
2023-01-26T15:42:15.647Z,100416.13
2023-01-26T15:44:43.868Z,100414.78
2023-01-26T15:47:14.234Z,100418.56
2023-01-26T15:49:42.957Z,100418.59
2023-01-26T15:52:20.484Z,100408.34
2023-01-26T15:54:48.966Z,100419.47
2023-01-26T15:57:17.093Z,100414.06
2023-01-26T15:59:45.357Z,100411.41
2023-01-26T16:02:16.142Z,100415.94
2023-01-26T16:04:46.288Z,100409.19
2023-01-26T16:07:18.716Z,100405.28
2023-01-26T16:09:49.295Z,100414.09
2023-01-26T16:12:31.230Z,100417.03
2023-01-26T16:15:00.907Z,100420.97
2023-01-26T16:17:29.160Z,100419.91
2023-01-26T16:19:57.705Z,100424.56
2023-01-26T16:22:25.720Z,100416.03
2023-01-26T16:24:53.966Z,100428.84
2023-01-26T16:27:22.727Z,100430.03
2023-01-26T16:29:50.988Z,100425.41
2023-01-26T16:32:28.960Z,100429.09
2023-01-26T16:34:57.255Z,100424.06
2023-01-26T16:37:25.317Z,100423.91
2023-01-26T16:39:53.719Z,100424.22
2023-01-26T16:42:22.020Z,100419.63
2023-01-26T16:44:50.557Z,100420.28
2023-01-26T16:47:18.471Z,100416.06
2023-01-26T16:49:46.667Z,100421.09
2023-01-26T16:52:14.720Z,100418.03
2023-01-26T16:54:43.260Z,100417.59
2023-01-26T16:57:11.706Z,100418.81
2023-01-26T16:59:40.335Z,100429.28
2023-01-26T17:02:25.219Z,100425.03
2023-01-26T17:04:53.533Z,100427.22
2023-01-26T17:07:21.671Z,100425.69
2023-01-26T17:09:51.094Z,100434.13
2023-01-26T17:12:19.231Z,100429.28
2023-01-26T17:14:47.621Z,100422.59
2023-01-26T17:17:15.655Z,100435.63
2023-01-26T17:19:44.008Z,100435.63
2023-01-26T17:22:11.916Z,100429.72
2023-01-26T17:24:41.498Z,100428.19
2023-01-26T17:27:12.894Z,100435.97
2023-01-26T17:29:42.487Z,100432.47
2023-01-26T17:32:10.684Z,100433.16
2023-01-26T17:34:39.017Z,100434.84
2023-01-26T17:37:07.237Z,100439.81
2023-01-26T17:39:35.708Z,100445.34
2023-01-26T17:42:03.976Z,100446.63
2023-01-26T17:44:32.247Z,100445.97
2023-01-26T17:47:00.221Z,100454.19
2023-01-26T17:49:28.730Z,100459.75
2023-01-26T17:51:56.798Z,100463.34
2023-01-26T17:54:25.434Z,100462.34
2023-01-26T17:56:55.186Z,100457.25
2023-01-26T17:59:23.587Z,100465.59
2023-01-26T18:01:52.662Z,100465.16
2023-01-26T18:04:21.108Z,100472.00
2023-01-26T18:06:49.056Z,100476.78
2023-01-26T18:09:18.446Z,100472.16
2023-01-26T18:11:46.564Z,100480.09
2023-01-26T18:14:14.859Z,100480.75
2023-01-26T18:16:42.925Z,100479.75
2023-01-26T18:19:11.375Z,100478.47
2023-01-26T18:21:39.340Z,100485.94
2023-01-26T18:24:07.834Z,100482.19
2023-01-26T18:26:38.038Z,100486.88
2023-01-26T18:29:07.086Z,100483.53
2023-01-26T18:31:39.770Z,100495.97
2023-01-26T18:34:10.784Z,100500.78
2023-01-26T18:36:38.799Z,100493.00
2023-01-26T18:39:13.049Z,100489.84
2023-01-26T18:41:43.556Z,100495.97
2023-01-26T18:44:12.167Z,100500.13
2023-01-26T18:46:40.157Z,100499.28
2023-01-26T18:49:10.367Z,100505.47
2023-01-26T18:51:38.442Z,100492.50
2023-01-26T18:54:08.159Z,100507.00
2023-01-26T18:56:36.451Z,100502.16
2023-01-26T18:59:04.751Z,100503.28
2023-01-26T19:01:32.748Z,100495.59
2023-01-26T19:04:04.222Z,100510.22
2023-01-26T19:06:36.429Z,100504.88
2023-01-26T19:09:06.910Z,100498.19
2023-01-26T19:11:39.210Z,100504.72
2023-01-26T19:14:08.578Z,100504.16
2023-01-26T19:16:37.159Z,100502.53
2023-01-26T19:19:06.658Z,100494.22
2023-01-26T19:21:34.503Z,100497.56
2023-01-26T19:24:06.115Z,100498.03
2023-01-26T19:26:34.608Z,100498.63
2023-01-26T19:29:03.284Z,100503.31
2023-01-26T19:31:32.313Z,100493.44
2023-01-26T19:34:03.125Z,100499.97
2023-01-26T19:36:33.498Z,100496.25
2023-01-26T19:39:04.529Z,100500.78
2023-01-26T19:41:33.129Z,100502.63
2023-01-26T19:44:05.043Z,100501.00
2023-01-26T19:46:34.649Z,100497.81
2023-01-26T19:49:03.048Z,100508.34
2023-01-26T19:51:31.440Z,100500.88
2023-01-26T19:54:01.847Z,100501.09
2023-01-26T19:56:32.599Z,100507.97
2023-01-26T19:59:05.267Z,100508.84
2023-01-26T20:01:34.497Z,100511.81
2023-01-26T20:04:06.747Z,100512.00
2023-01-26T20:06:36.158Z,100507.56
2023-01-26T20:09:07.769Z,100511.13
2023-01-26T20:11:36.043Z,100512.88
2023-01-26T20:14:08.981Z,100510.81
2023-01-26T20:16:37.589Z,100508.53
2023-01-26T20:19:06.294Z,100509.63
2023-01-26T20:21:35.760Z,100508.22
2023-01-26T20:24:06.053Z,100501.84
2023-01-26T20:26:35.477Z,100505.84
2023-01-26T20:29:04.905Z,100504.59
2023-01-26T20:31:33.598Z,100502.94
2023-01-26T20:34:02.397Z,100511.50
2023-01-26T20:36:31.623Z,100508.31
2023-01-26T20:39:01.273Z,100501.69
2023-01-26T20:41:31.089Z,100508.75
2023-01-26T20:44:03.840Z,100511.81
2023-01-26T20:46:40.896Z,100508.28
2023-01-26T20:49:13.234Z,100511.69
2023-01-26T20:51:43.047Z,100515.59
2023-01-26T20:54:13.899Z,100514.22
2023-01-26T20:56:42.406Z,100506.03
2023-01-26T20:59:12.621Z,100510.72
2023-01-26T21:01:40.597Z,100503.50
2023-01-26T21:04:09.019Z,100507.88
2023-01-26T21:06:37.675Z,100506.00
2023-01-26T21:09:06.081Z,100505.41
2023-01-26T21:11:37.649Z,100501.34
2023-01-26T21:14:06.335Z,100496.50
2023-01-26T21:16:36.300Z,100503.78
2023-01-26T21:19:05.872Z,100501.97
2023-01-26T21:21:33.827Z,100499.81
2023-01-26T21:24:02.138Z,100506.91
2023-01-26T21:26:30.222Z,100501.59
2023-01-26T21:29:00.237Z,100493.03
2023-01-26T21:31:32.815Z,100495.28
2023-01-26T21:34:01.575Z,100492.91
2023-01-26T21:36:32.217Z,100495.88
2023-01-26T21:39:01.777Z,100492.25
2023-01-26T21:41:52.433Z,100487.03
2023-01-26T21:44:32.550Z,100485.66
2023-01-26T21:47:04.107Z,100486.72
2023-01-26T21:49:32.478Z,100488.91
2023-01-26T21:52:35.918Z,100490.56
2023-01-26T21:55:04.428Z,100485.72
2023-01-26T21:57:51.006Z,100491.91
2023-01-26T22:00:19.721Z,100486.25
2023-01-26T22:02:47.885Z,100488.19
2023-01-26T22:05:16.882Z,100483.56
2023-01-26T22:07:46.754Z,100486.44
2023-01-26T22:10:15.534Z,100479.34
2023-01-26T22:12:43.911Z,100488.59
2023-01-26T22:15:12.193Z,100485.34
2023-01-26T22:17:40.556Z,100489.97
2023-01-26T22:20:09.891Z,100488.81
2023-01-26T22:22:38.295Z,100494.59
2023-01-26T22:25:06.591Z,100486.31
2023-01-26T22:27:35.080Z,100486.81
2023-01-26T22:30:03.288Z,100482.38
2023-01-26T22:32:31.812Z,100491.47
2023-01-26T22:34:59.847Z,100480.81
2023-01-26T22:37:29.366Z,100479.53
2023-01-26T22:39:57.278Z,100474.41
2023-01-26T22:42:25.574Z,100474.53
2023-01-26T22:44:53.465Z,100462.50
2023-01-26T22:47:22.715Z,100466.66
2023-01-26T22:49:51.138Z,100470.78
2023-01-26T22:52:19.377Z,100467.53
2023-01-26T22:54:47.276Z,100458.59
2023-01-26T22:57:15.715Z,100458.38
2023-01-26T22:59:43.608Z,100451.88
2023-01-26T23:02:11.995Z,100454.03
2023-01-26T23:04:39.922Z,100444.97
2023-01-26T23:07:08.224Z,100444.50
2023-01-26T23:09:36.216Z,100448.63
2023-01-26T23:12:04.751Z,100446.84
2023-01-26T23:14:34.333Z,100448.94
2023-01-26T23:17:02.644Z,100448.03
2023-01-26T23:19:30.633Z,100450.63
2023-01-26T23:21:58.846Z,100442.63
2023-01-26T23:24:26.834Z,100443.63
2023-01-26T23:26:55.095Z,100446.03
2023-01-26T23:29:22.993Z,100445.75
2023-01-26T23:31:51.447Z,100438.28
2023-01-26T23:34:19.416Z,100437.91
2023-01-26T23:36:47.606Z,100436.03
2023-01-26T23:39:15.874Z,100441.16
2023-01-26T23:41:45.411Z,100434.22
2023-01-26T23:44:13.392Z,100421.94
2023-01-26T23:46:41.666Z,100430.78
2023-01-26T23:49:09.717Z,100421.25
2023-01-26T23:51:39.058Z,100423.81
2023-01-26T23:54:07.066Z,100423.53
2023-01-26T23:56:35.403Z,100424.41
2023-01-26T23:59:03.387Z,100417.06
